createdAt,value
2023-04-08T00:00:10.217Z,18.05
2023-04-08T00:09:51.016Z,21.95
2023-04-08T00:12:59.861Z,22.02
2023-04-08T00:16:14.034Z,21.88
2023-04-08T00:24:02.326Z,17.40
2023-04-08T00:26:46.582Z,15.68
2023-04-08T00:30:42.100Z,23.17
2023-04-08T00:34:20.785Z,18.27
2023-04-08T00:44:19.970Z,22.17
2023-04-08T00:51:58.155Z,19.23
2023-04-08T00:55:31.782Z,23.35
2023-04-08T00:57:21.599Z,21.58
2023-04-08T01:02:33.951Z,26.33
2023-04-08T01:10:03.580Z,18.15
2023-04-08T01:13:49.382Z,20.00
2023-04-08T01:17:35.359Z,21.50
2023-04-08T01:21:11.358Z,23.60
2023-04-08T01:24:41.537Z,29.20
2023-04-08T01:34:30.009Z,24.13
2023-04-08T01:35:19.745Z,22.45
2023-04-08T01:38:39.931Z,21.63
2023-04-08T01:45:38.851Z,26.15
2023-04-08T01:49:23.849Z,26.23
2023-04-08T01:56:36.224Z,25.77
2023-04-08T02:00:11.856Z,19.75
2023-04-08T02:14:14.107Z,21.15
2023-04-08T02:17:48.336Z,18.85
2023-04-08T02:21:15.106Z,24.27
2023-04-08T02:27:38.715Z,20.27
2023-04-08T02:31:23.249Z,22.15
2023-04-08T02:34:56.719Z,22.33
2023-04-08T02:38:19.912Z,20.15
2023-04-08T02:45:15.315Z,19.33
2023-04-08T02:48:30.458Z,21.02
2023-04-08T02:59:03.922Z,26.13
2023-04-08T03:05:29.340Z,22.10
2023-04-08T03:12:31.491Z,21.27
2023-04-08T03:16:04.071Z,18.80
2023-04-08T03:19:32.498Z,26.75
2023-04-08T03:23:26.220Z,24.40
2023-04-08T03:26:52.990Z,26.20
2023-04-08T03:30:16.488Z,25.50
2023-04-08T03:34:12.166Z,19.98
2023-04-08T03:37:47.493Z,24.92
2023-04-08T03:51:21.344Z,24.63
2023-04-08T03:54:48.034Z,27.20
2023-04-08T04:01:36.804Z,24.40
2023-04-08T04:04:59.781Z,24.52
2023-04-08T04:12:45.027Z,27.45
2023-04-08T04:13:48.225Z,24.50
2023-04-08T04:16:41.984Z,25.10
2023-04-08T04:27:15.216Z,21.58
2023-04-08T04:34:05.401Z,25.20
2023-04-08T04:38:30.696Z,18.10
2023-04-08T04:41:19.157Z,26.00
2023-04-08T04:49:08.109Z,22.67
2023-04-08T04:49:13.707Z,27.45
2023-04-08T04:53:03.912Z,24.95
2023-04-08T04:59:48.150Z,26.80
2023-04-08T05:03:13.542Z,21.35
2023-04-08T05:07:02.082Z,25.60
2023-04-08T05:10:43.387Z,24.27
2023-04-08T05:14:21.080Z,22.65
2023-04-08T05:21:52.370Z,19.40
2023-04-08T05:28:14.191Z,20.58
2023-04-08T05:36:48.065Z,21.23
2023-04-08T05:44:13.339Z,18.95
2023-04-08T05:47:36.774Z,19.77
2023-04-08T05:47:36.784Z,18.63
2023-04-08T05:51:27.501Z,23.55
2023-04-08T06:00:09.188Z,29.17
2023-04-08T06:02:17.108Z,22.42
2023-04-08T06:05:34.071Z,21.48
2023-04-08T06:08:46.133Z,30.13
2023-04-08T06:12:26.172Z,23.88
2023-04-08T06:16:02.802Z,26.30
2023-04-08T06:19:41.914Z,29.60
2023-04-08T06:26:43.097Z,24.08
2023-04-08T06:30:12.241Z,20.65
2023-04-08T06:33:32.484Z,25.20
2023-04-08T06:38:27.881Z,27.60
2023-04-08T06:41:17.790Z,24.13
2023-04-08T06:48:18.880Z,23.35
2023-04-08T06:55:00.894Z,25.95
2023-04-08T06:59:01.302Z,28.92
2023-04-08T07:02:34.031Z,25.27
2023-04-08T07:07:08.085Z,19.25
2023-04-08T07:09:31.646Z,19.15
2023-04-08T07:12:35.601Z,26.75
2023-04-08T07:15:41.735Z,27.33
2023-04-08T07:19:34.440Z,22.90
2023-04-08T07:22:46.464Z,19.67
2023-04-08T07:30:30.937Z,22.77
2023-04-08T07:38:02.938Z,21.17
2023-04-08T07:45:41.929Z,16.10
2023-04-08T07:52:15.694Z,15.57
2023-04-08T07:59:41.986Z,17.45
2023-04-08T08:13:46.469Z,13.07
2023-04-08T08:17:16.003Z,13.90
2023-04-08T08:50:34.119Z,14.07
2023-04-08T08:54:09.375Z,14.18
2023-04-08T09:08:58.004Z,7.97
2023-04-08T09:12:15.673Z,14.57
2023-04-08T09:15:37.423Z,17.10
2023-04-08T09:22:57.858Z,16.67
2023-04-08T09:27:25.841Z,12.13
2023-04-08T09:30:52.680Z,13.80
2023-04-08T09:34:26.223Z,18.52
2023-04-08T09:38:15.782Z,16.17
2023-04-08T09:43:53.793Z,13.10
2023-04-08T09:45:39.244Z,8.95
2023-04-08T09:52:53.644Z,8.50
2023-04-08T09:56:33.011Z,10.13
2023-04-08T10:00:12.015Z,11.38
2023-04-08T10:17:50.266Z,15.95
2023-04-08T10:21:58.135Z,10.10
2023-04-08T10:30:13.246Z,10.02
2023-04-08T10:33:42.936Z,10.23
2023-04-08T10:36:52.016Z,9.98
2023-04-08T10:40:31.764Z,11.88
2023-04-08T10:44:04.762Z,9.55
2023-04-08T10:55:27.270Z,12.60
2023-04-08T11:01:58.847Z,13.23
2023-04-08T11:03:19.359Z,10.38
2023-04-08T11:07:13.758Z,13.32
2023-04-08T11:10:50.437Z,12.32
2023-04-08T11:14:10.569Z,11.30
2023-04-08T11:17:08.015Z,8.73
2023-04-08T11:20:26.493Z,8.73
2023-04-08T11:23:36.734Z,10.38
2023-04-08T11:27:35.085Z,9.50
2023-04-08T11:30:45.722Z,10.52
2023-04-08T11:34:01.163Z,14.63
2023-04-08T11:36:59.860Z,15.18
2023-04-08T11:47:14.166Z,16.55
2023-04-08T11:50:43.550Z,16.80
2023-04-08T11:54:04.134Z,15.82
2023-04-08T11:57:34.897Z,13.13
2023-04-08T12:01:28.156Z,15.55
2023-04-08T12:05:01.281Z,14.05
2023-04-08T12:08:51.536Z,14.40
2023-04-08T12:12:02.425Z,14.70
2023-04-08T12:15:44.832Z,14.95
2023-04-08T12:22:29.609Z,16.75
2023-04-08T12:25:42.236Z,13.63
2023-04-08T12:28:46.759Z,13.45
2023-04-08T12:32:03.708Z,16.30
2023-04-08T12:35:17.054Z,12.65
2023-04-08T12:41:53.697Z,12.30
2023-04-08T12:44:53.284Z,12.88
2023-04-08T12:48:10.716Z,15.88
2023-04-08T12:51:19.319Z,15.88
2023-04-08T12:54:53.314Z,14.50
2023-04-08T13:01:32.952Z,15.30
2023-04-08T13:04:35.170Z,12.07
2023-04-08T13:08:01.590Z,10.88
2023-04-08T13:14:58.771Z,11.73
2023-04-08T13:18:42.514Z,15.18
2023-04-08T13:21:53.563Z,12.18
2023-04-08T13:24:57.374Z,17.40
2023-04-08T13:32:31.732Z,16.95
2023-04-08T13:35:55.478Z,18.00
2023-04-08T13:39:22.155Z,20.65
2023-04-08T13:42:45.836Z,16.35
2023-04-08T13:49:25.968Z,16.98
2023-04-08T13:49:45.571Z,16.15
2023-04-08T14:00:01.767Z,22.88
2023-04-08T14:00:19.906Z,18.92
2023-04-08T14:04:14.884Z,20.10
2023-04-08T14:07:29.751Z,22.02
2023-04-08T14:10:38.549Z,19.17
2023-04-08T14:14:04.034Z,22.70
2023-04-08T14:17:05.858Z,22.80
2023-04-08T14:23:28.759Z,19.33
2023-04-08T14:26:27.576Z,19.70
2023-04-08T14:29:49.455Z,19.75
2023-04-08T14:33:18.390Z,23.00
2023-04-08T14:37:11.620Z,23.23
2023-04-08T14:40:31.544Z,20.83
2023-04-08T14:43:49.175Z,18.35
2023-04-08T14:47:11.180Z,20.27
2023-04-08T14:50:23.840Z,20.13
2023-04-08T14:54:03.264Z,20.42
2023-04-08T14:57:52.123Z,20.15
2023-04-08T15:01:58.223Z,19.55
2023-04-08T15:05:24.973Z,18.52
2023-04-08T15:08:35.746Z,18.98
2023-04-08T15:11:48.089Z,19.77
2023-04-08T15:15:21.760Z,18.38
2023-04-08T15:19:05.558Z,20.17
2023-04-08T15:22:19.870Z,21.25
2023-04-08T15:28:58.712Z,18.52
2023-04-08T15:32:46.229Z,17.50
2023-04-08T15:36:13.493Z,17.92
2023-04-08T15:42:43.597Z,19.10
2023-04-08T15:45:56.703Z,18.45
2023-04-08T15:56:42.884Z,14.85
2023-04-08T15:57:21.954Z,16.13
2023-04-08T16:01:01.521Z,13.13
2023-04-08T16:04:28.844Z,15.30
2023-04-08T16:11:22.790Z,15.02
2023-04-08T16:14:34.674Z,14.23
2023-04-08T16:17:46.907Z,14.27
2023-04-08T16:24:56.688Z,15.98
2023-04-08T16:32:12.675Z,17.55
2023-04-08T16:35:18.864Z,20.92
2023-04-08T16:38:29.064Z,18.15
2023-04-08T16:41:58.500Z,19.45
2023-04-08T16:45:26.995Z,18.52
2023-04-08T16:49:09.739Z,20.10
2023-04-08T16:52:30.089Z,21.58
2023-04-08T16:56:12.691Z,24.70
2023-04-08T16:59:06.739Z,29.35
2023-04-08T17:02:06.390Z,26.65
2023-04-08T17:05:48.748Z,30.13
2023-04-08T17:12:43.220Z,31.63
2023-04-08T17:19:22.320Z,32.10
2023-04-08T17:26:18.803Z,37.05
2023-04-08T17:29:46.018Z,33.88
2023-04-08T17:33:28.780Z,35.90
2023-04-08T17:40:03.551Z,35.38
2023-04-08T17:43:07.609Z,34.45
2023-04-08T17:50:13.400Z,36.47
2023-04-08T17:53:30.906Z,42.92
2023-04-08T17:56:44.951Z,37.00
2023-04-08T18:00:12.735Z,39.33
2023-04-08T18:03:51.409Z,41.78
2023-04-08T18:07:09.092Z,41.33
2023-04-08T18:10:28.042Z,39.67
2023-04-08T18:13:29.026Z,46.30
2023-04-08T18:17:27.999Z,42.25
2023-04-08T18:20:41.764Z,45.08
2023-04-08T18:24:15.806Z,42.72
2023-04-08T18:27:43.125Z,45.50
2023-04-08T18:31:24.792Z,46.10
2023-04-08T18:38:43.823Z,46.95
2023-04-08T18:44:21.117Z,51.55
2023-04-08T18:45:24.282Z,50.72
2023-04-08T18:55:38.942Z,53.55
2023-04-08T19:02:15.761Z,61.13
2023-04-08T19:05:39.452Z,69.18
2023-04-08T19:09:14.450Z,71.95
2023-04-08T19:12:41.500Z,77.82
2023-04-08T19:15:39.026Z,74.32
2023-04-08T19:22:32.264Z,88.65
2023-04-08T19:26:19.881Z,86.95
2023-04-08T19:29:38.795Z,88.85
2023-04-08T19:32:46.210Z,91.93
2023-04-08T19:36:31.434Z,94.97
2023-04-08T19:39:26.399Z,102.53
2023-04-08T19:46:04.693Z,95.63
2023-04-08T19:52:51.221Z,109.20
2023-04-08T19:56:26.708Z,108.65
2023-04-08T19:59:49.504Z,111.82
2023-04-08T20:03:01.480Z,112.00
2023-04-08T20:06:25.418Z,114.70
2023-04-08T20:09:54.902Z,122.85
2023-04-08T20:16:21.115Z,128.35
2023-04-08T20:19:49.240Z,130.98
2023-04-08T20:23:05.921Z,129.20
2023-04-08T20:26:19.882Z,133.38
2023-04-08T20:30:15.011Z,128.63
2023-04-08T20:37:13.346Z,140.55
2023-04-08T20:40:43.887Z,136.38
2023-04-08T20:44:08.577Z,133.30
2023-04-08T20:47:27.865Z,148.73
2023-04-08T20:50:59.302Z,143.57
2023-04-08T20:59:02.439Z,164.95
2023-04-08T21:01:18.283Z,157.70
2023-04-08T21:04:45.897Z,168.55
2023-04-08T21:08:34.748Z,171.68
2023-04-08T21:11:43.641Z,170.20
2023-04-08T21:14:51.443Z,165.93
2023-04-08T21:20:46.903Z,174.32
2023-04-08T21:23:36.907Z,176.38
2023-04-08T21:26:52.836Z,174.00
2023-04-08T21:30:24.549Z,181.25
2023-04-08T21:33:30.671Z,182.25
2023-04-08T21:36:43.348Z,193.93
2023-04-08T21:39:47.708Z,194.23
2023-04-08T21:43:37.330Z,198.43
2023-04-08T21:46:40.277Z,196.02
2023-04-08T21:49:37.948Z,195.23
2023-04-08T21:59:00.785Z,181.05
2023-04-08T22:01:55.520Z,213.07
2023-04-08T22:05:24.619Z,198.65
2023-04-08T22:08:33.129Z,201.82
2023-04-08T22:11:59.115Z,231.77
2023-04-08T22:18:47.960Z,221.82
2023-04-08T22:25:10.477Z,213.52
2023-04-08T22:28:21.175Z,213.82
2023-04-08T22:38:50.296Z,205.05
2023-04-08T22:42:07.001Z,242.48
2023-04-08T22:45:40.679Z,207.60
2023-04-08T22:52:15.586Z,216.80
2023-04-08T22:53:17.860Z,226.57
2023-04-08T22:55:24.239Z,209.93
2023-04-08T23:02:03.013Z,193.85
2023-04-08T23:05:10.874Z,198.57
2023-04-08T23:08:18.251Z,194.27
2023-04-08T23:11:12.736Z,187.18
2023-04-08T23:14:14.760Z,184.45
2023-04-08T23:17:44.637Z,191.43
2023-04-08T23:20:49.260Z,184.30
2023-04-08T23:24:05.572Z,173.55
2023-04-08T23:27:45.976Z,176.80
2023-04-08T23:30:51.116Z,184.32
2023-04-08T23:34:09.758Z,171.88
2023-04-08T23:37:24.592Z,160.15
2023-04-08T23:41:11.014Z,153.10
2023-04-08T23:44:23.972Z,139.00
2023-04-08T23:47:25.446Z,126.88
2023-04-08T23:50:52.884Z,123.85
2023-04-08T23:54:19.341Z,125.05
2023-04-08T23:57:59.492Z,121.30
